sensor_id;sensor_type;location;lat;lon;timestamp;pressure;altitude;pressure_sealevel;temperature;humidity
42859;BME280;28505;56.970;40.998;2023-05-03T00:04:03;100427.09;;;2.37;100.00
42859;BME280;28505;56.970;40.998;2023-05-03T00:09:25;100413.28;;;2.28;100.00
42859;BME280;28505;56.970;40.998;2023-05-03T00:14:47;100414.25;;;2.33;100.00
42859;BME280;28505;56.970;40.998;2023-05-03T00:20:09;100407.41;;;2.38;100.00
42859;BME280;28505;56.970;40.998;2023-05-03T00:25:32;100404.91;;;2.43;100.00
42859;BME280;28505;56.970;40.998;2023-05-03T00:30:55;100391.84;;;2.53;100.00
42859;BME280;28505;56.970;40.998;2023-05-03T00:36:17;100390.22;;;2.52;100.00
42859;BME280;28505;56.970;40.998;2023-05-03T00:41:40;100385.47;;;2.54;100.00
42859;BME280;28505;56.970;40.998;2023-05-03T00:47:02;100374.72;;;2.61;100.00
42859;BME280;28505;56.970;40.998;2023-05-03T00:52:25;100372.41;;;2.64;100.00
42859;BME280;28505;56.970;40.998;2023-05-03T00:57:48;100368.47;;;2.67;100.00
42859;BME280;28505;56.970;40.998;2023-05-03T01:03:10;100359.69;;;2.66;100.00
42859;BME280;28505;56.970;40.998;2023-05-03T01:08:36;100353.78;;;2.76;100.00
42859;BME280;28505;56.970;40.998;2023-05-03T01:14:03;100355.72;;;2.80;100.00
42859;BME280;28505;56.970;40.998;2023-05-03T01:19:34;100353.06;;;2.80;100.00
42859;BME280;28505;56.970;40.998;2023-05-03T01:25:07;100352.94;;;2.87;100.00
42859;BME280;28505;56.970;40.998;2023-05-03T01:30:31;100341.50;;;2.87;100.00
42859;BME280;28505;56.970;40.998;2023-05-03T01:36:28;100339.28;;;2.95;100.00
42859;BME280;28505;56.970;40.998;2023-05-03T01:41:44;100331.28;;;3.07;100.00
42859;BME280;28505;56.970;40.998;2023-05-03T01:47:06;100328.59;;;3.19;100.00
42859;BME280;28505;56.970;40.998;2023-05-03T01:52:28;100319.53;;;3.32;100.00
42859;BME280;28505;56.970;40.998;2023-05-03T01:57:50;100319.41;;;3.38;100.00
42859;BME280;28505;56.970;40.998;2023-05-03T02:03:12;100312.41;;;3.49;100.00
42859;BME280;28505;56.970;40.998;2023-05-03T02:08:35;100311.09;;;3.63;100.00
42859;BME280;28505;56.970;40.998;2023-05-03T02:13:57;100304.88;;;3.74;100.00
42859;BME280;28505;56.970;40.998;2023-05-03T02:19:18;100305.78;;;3.80;100.00
42859;BME280;28505;56.970;40.998;2023-05-03T02:24:40;100301.91;;;3.88;100.00
42859;BME280;28505;56.970;40.998;2023-05-03T02:30:02;100295.94;;;3.97;100.00
42859;BME280;28505;56.970;40.998;2023-05-03T02:35:31;100288.75;;;4.15;100.00
42859;BME280;28505;56.970;40.998;2023-05-03T02:48:25;100278.00;;;4.82;100.00
42859;BME280;28505;56.970;40.998;2023-05-03T02:53:47;100266.56;;;5.31;100.00
42859;BME280;28505;56.970;40.998;2023-05-03T02:59:09;100257.13;;;5.77;100.00
42859;BME280;28505;56.970;40.998;2023-05-03T03:04:31;100255.50;;;6.03;100.00
42859;BME280;28505;56.970;40.998;2023-05-03T03:09:53;100254.03;;;6.23;97.60
42859;BME280;28505;56.970;40.998;2023-05-03T03:15:15;100235.94;;;6.35;95.12
42859;BME280;28505;56.970;40.998;2023-05-03T03:20:38;100227.69;;;6.47;92.38
42859;BME280;28505;56.970;40.998;2023-05-03T03:26:00;100239.56;;;6.66;92.94
42859;BME280;28505;56.970;40.998;2023-05-03T03:31:22;100235.41;;;6.91;94.25
42859;BME280;28505;56.970;40.998;2023-05-03T03:36:48;100235.75;;;7.10;90.53
42859;BME280;28505;56.970;40.998;2023-05-03T03:42:11;100228.03;;;7.34;89.05
42859;BME280;28505;56.970;40.998;2023-05-03T03:47:35;100227.56;;;7.62;86.88
42859;BME280;28505;56.970;40.998;2023-05-03T03:52:57;100219.25;;;8.15;87.49
42859;BME280;28505;56.970;40.998;2023-05-03T03:58:19;100211.94;;;8.51;84.00
42859;BME280;28505;56.970;40.998;2023-05-03T04:03:40;100219.59;;;8.94;84.77
42859;BME280;28505;56.970;40.998;2023-05-03T04:09:04;100205.22;;;10.26;82.76
42859;BME280;28505;56.970;40.998;2023-05-03T04:14:28;100204.50;;;11.12;75.34
42859;BME280;28505;56.970;40.998;2023-05-03T04:19:50;100192.34;;;12.17;72.44
42859;BME280;28505;56.970;40.998;2023-05-03T04:25:13;100196.75;;;13.91;64.77
42859;BME280;28505;56.970;40.998;2023-05-03T04:30:37;100192.00;;;15.68;61.18
42859;BME280;28505;56.970;40.998;2023-05-03T04:35:59;100183.06;;;17.42;57.34
42859;BME280;28505;56.970;40.998;2023-05-03T04:41:22;100172.88;;;18.67;52.26
42859;BME280;28505;56.970;40.998;2023-05-03T04:46:46;100170.03;;;18.02;48.89
42859;BME280;28505;56.970;40.998;2023-05-03T04:52:15;100156.72;;;16.83;47.22
42859;BME280;28505;56.970;40.998;2023-05-03T04:57:39;100157.31;;;15.57;47.91
42859;BME280;28505;56.970;40.998;2023-05-03T05:03:05;100136.63;;;14.60;49.64
42859;BME280;28505;56.970;40.998;2023-05-03T05:08:28;100133.09;;;14.11;50.21
42859;BME280;28505;56.970;40.998;2023-05-03T05:13:51;100138.28;;;13.68;51.30
42859;BME280;28505;56.970;40.998;2023-05-03T05:19:14;100132.81;;;13.23;51.63
42859;BME280;28505;56.970;40.998;2023-05-03T05:24:38;100120.06;;;13.01;53.27
42859;BME280;28505;56.970;40.998;2023-05-03T05:30:03;100099.25;;;12.87;53.67
42859;BME280;28505;56.970;40.998;2023-05-03T05:35:28;100100.50;;;12.68;53.92
42859;BME280;28505;56.970;40.998;2023-05-03T05:40:52;100109.34;;;12.59;54.78
42859;BME280;28505;56.970;40.998;2023-05-03T05:46:14;100125.06;;;12.57;55.58
42859;BME280;28505;56.970;40.998;2023-05-03T05:51:38;100122.75;;;12.51;56.40
42859;BME280;28505;56.970;40.998;2023-05-03T05:57:02;100124.56;;;12.41;56.30
42859;BME280;28505;56.970;40.998;2023-05-03T06:02:24;100122.78;;;12.37;56.56
42859;BME280;28505;56.970;40.998;2023-05-03T06:07:49;100129.78;;;12.38;56.57
42859;BME280;28505;56.970;40.998;2023-05-03T06:13:12;100133.78;;;12.40;56.72
42859;BME280;28505;56.970;40.998;2023-05-03T06:18:38;100130.56;;;12.52;57.28
42859;BME280;28505;56.970;40.998;2023-05-03T06:26:39;100136.06;;;13.11;54.07
42859;BME280;28505;56.970;40.998;2023-05-03T06:32:03;100138.28;;;12.73;54.25
42859;BME280;28505;56.970;40.998;2023-05-03T06:37:27;100130.41;;;13.80;56.46
42859;BME280;28505;56.970;40.998;2023-05-03T06:42:52;100128.47;;;14.51;51.53
42859;BME280;28505;56.970;40.998;2023-05-03T06:48:36;100143.44;;;15.15;51.38
42859;BME280;28505;56.970;40.998;2023-05-03T06:54:01;100133.69;;;15.31;48.15
42859;BME280;28505;56.970;40.998;2023-05-03T06:59:29;100139.91;;;15.32;50.97
42859;BME280;28505;56.970;40.998;2023-05-03T07:04:52;100125.03;;;15.46;49.15
42859;BME280;28505;56.970;40.998;2023-05-03T07:10:15;100130.28;;;14.73;51.03
42859;BME280;28505;56.970;40.998;2023-05-03T07:15:39;100133.94;;;13.89;53.83
42859;BME280;28505;56.970;40.998;2023-05-03T07:21:02;100119.13;;;13.87;54.46
42859;BME280;28505;56.970;40.998;2023-05-03T07:26:29;100127.97;;;13.78;53.21
42859;BME280;28505;56.970;40.998;2023-05-03T07:31:51;100132.59;;;13.78;55.86
42859;BME280;28505;56.970;40.998;2023-05-03T07:37:14;100137.91;;;13.61;55.87
42859;BME280;28505;56.970;40.998;2023-05-03T07:42:38;100128.56;;;13.44;55.74
42859;BME280;28505;56.970;40.998;2023-05-03T07:48:00;100163.63;;;13.49;57.05
42859;BME280;28505;56.970;40.998;2023-05-03T07:53:23;100152.56;;;13.59;56.36
42859;BME280;28505;56.970;40.998;2023-05-03T07:58:45;100151.56;;;13.55;56.80
42859;BME280;28505;56.970;40.998;2023-05-03T08:04:17;100142.84;;;13.36;57.35
42859;BME280;28505;56.970;40.998;2023-05-03T08:09:39;100155.88;;;13.20;57.64
42859;BME280;28505;56.970;40.998;2023-05-03T08:15:02;100156.81;;;13.16;59.56
42859;BME280;28505;56.970;40.998;2023-05-03T08:20:27;100158.25;;;12.99;60.04
42859;BME280;28505;56.970;40.998;2023-05-03T08:25:50;100176.22;;;12.95;60.75
42859;BME280;28505;56.970;40.998;2023-05-03T08:31:13;100183.88;;;12.65;61.96
42859;BME280;28505;56.970;40.998;2023-05-03T08:36:37;100187.47;;;12.47;63.22
42859;BME280;28505;56.970;40.998;2023-05-03T08:42:04;100204.66;;;12.24;63.26
42859;BME280;28505;56.970;40.998;2023-05-03T08:47:28;100199.25;;;12.24;64.59
42859;BME280;28505;56.970;40.998;2023-05-03T08:52:58;100207.25;;;12.15;65.42
42859;BME280;28505;56.970;40.998;2023-05-03T08:58:21;100200.22;;;12.00;67.39
42859;BME280;28505;56.970;40.998;2023-05-03T09:03:47;100200.50;;;11.99;68.97
42859;BME280;28505;56.970;40.998;2023-05-03T09:09:10;100206.34;;;11.87;70.58
42859;BME280;28505;56.970;40.998;2023-05-03T09:14:41;100210.72;;;11.83;69.98
42859;BME280;28505;56.970;40.998;2023-05-03T09:20:10;100201.59;;;11.98;69.61
42859;BME280;28505;56.970;40.998;2023-05-03T09:25:45;100206.03;;;12.07;69.56
42859;BME280;28505;56.970;40.998;2023-05-03T09:31:10;100201.97;;;12.65;66.56
42859;BME280;28505;56.970;40.998;2023-05-03T09:36:45;100201.47;;;12.77;67.31
42859;BME280;28505;56.970;40.998;2023-05-03T09:42:14;100201.06;;;12.97;67.68
42859;BME280;28505;56.970;40.998;2023-05-03T09:47:59;100210.56;;;12.95;66.74
42859;BME280;28505;56.970;40.998;2023-05-03T09:53:24;100215.72;;;12.82;68.84
42859;BME280;28505;56.970;40.998;2023-05-03T09:58:51;100208.91;;;12.57;68.13
42859;BME280;28505;56.970;40.998;2023-05-03T10:10:06;100206.44;;;13.11;71.62
42859;BME280;28505;56.970;40.998;2023-05-03T10:15:30;100206.81;;;13.91;71.33
42859;BME280;28505;56.970;40.998;2023-05-03T10:20:56;100205.31;;;14.07;67.00
42859;BME280;28505;56.970;40.998;2023-05-03T10:26:22;100218.84;;;14.29;65.82
42859;BME280;28505;56.970;40.998;2023-05-03T10:31:46;100209.94;;;14.69;64.02
42859;BME280;28505;56.970;40.998;2023-05-03T10:37:09;100219.31;;;14.63;66.32
42859;BME280;28505;56.970;40.998;2023-05-03T10:42:37;100194.63;;;14.42;64.03
42859;BME280;28505;56.970;40.998;2023-05-03T10:53:40;100228.41;;;14.04;64.88
42859;BME280;28505;56.970;40.998;2023-05-03T10:59:08;100227.34;;;14.14;66.74
42859;BME280;28505;56.970;40.998;2023-05-03T11:04:40;100228.16;;;13.92;69.04
42859;BME280;28505;56.970;40.998;2023-05-03T11:10:18;100223.94;;;13.77;69.98
42859;BME280;28505;56.970;40.998;2023-05-03T11:15:40;100228.03;;;14.20;69.51
42859;BME280;28505;56.970;40.998;2023-05-03T11:21:03;100233.22;;;14.08;70.91
42859;BME280;28505;56.970;40.998;2023-05-03T11:26:26;100217.22;;;14.28;69.52
42859;BME280;28505;56.970;40.998;2023-05-03T11:31:50;100219.75;;;14.25;68.58
42859;BME280;28505;56.970;40.998;2023-05-03T11:37:14;100222.50;;;14.02;69.62
42859;BME280;28505;56.970;40.998;2023-05-03T11:42:57;100227.28;;;13.83;71.99
42859;BME280;28505;56.970;40.998;2023-05-03T14:16:29;100234.78;;;13.41;84.59
42859;BME280;28505;56.970;40.998;2023-05-03T14:22:01;100224.91;;;13.09;82.44
42859;BME280;28505;56.970;40.998;2023-05-03T14:27:23;100222.78;;;13.20;86.19
42859;BME280;28505;56.970;40.998;2023-05-03T14:32:46;100227.47;;;13.14;82.93
42859;BME280;28505;56.970;40.998;2023-05-03T14:38:08;100232.63;;;12.88;82.85
42859;BME280;28505;56.970;40.998;2023-05-03T14:43:31;100226.53;;;12.96;84.21
42859;BME280;28505;56.970;40.998;2023-05-03T14:48:53;100229.75;;;12.98;85.00
42859;BME280;28505;56.970;40.998;2023-05-03T14:54:15;100228.38;;;13.23;87.06
42859;BME280;28505;56.970;40.998;2023-05-03T14:59:39;100228.50;;;13.32;81.92
42859;BME280;28505;56.970;40.998;2023-05-03T15:05:05;100232.91;;;13.64;81.53
42859;BME280;28505;56.970;40.998;2023-05-03T15:10:27;100234.63;;;13.60;81.27
42859;BME280;28505;56.970;40.998;2023-05-03T15:15:50;100236.31;;;13.20;83.16
42859;BME280;28505;56.970;40.998;2023-05-03T15:21:13;100236.06;;;12.80;89.63
42859;BME280;28505;56.970;40.998;2023-05-03T15:26:36;100235.94;;;12.85;93.43
42859;BME280;28505;56.970;40.998;2023-05-03T15:31:58;100245.44;;;12.69;97.18
42859;BME280;28505;56.970;40.998;2023-05-03T15:37:20;100245.63;;;12.45;96.91
42859;BME280;28505;56.970;40.998;2023-05-03T15:42:42;100253.22;;;12.29;100.00
42859;BME280;28505;56.970;40.998;2023-05-03T15:48:04;100251.88;;;12.12;100.00
42859;BME280;28505;56.970;40.998;2023-05-03T15:53:27;100248.38;;;12.12;100.00
42859;BME280;28505;56.970;40.998;2023-05-03T15:58:50;100247.81;;;11.96;100.00
42859;BME280;28505;56.970;40.998;2023-05-03T16:04:13;100271.44;;;11.90;100.00
42859;BME280;28505;56.970;40.998;2023-05-03T16:09:37;100273.81;;;11.92;100.00
42859;BME280;28505;56.970;40.998;2023-05-03T16:14:59;100272.13;;;11.96;100.00
42859;BME280;28505;56.970;40.998;2023-05-03T16:20:22;100270.00;;;11.93;100.00
42859;BME280;28505;56.970;40.998;2023-05-03T16:25:46;100281.25;;;11.81;100.00
42859;BME280;28505;56.970;40.998;2023-05-03T16:31:07;100293.38;;;11.84;100.00
42859;BME280;28505;56.970;40.998;2023-05-03T16:36:31;100303.31;;;11.88;100.00
42859;BME280;28505;56.970;40.998;2023-05-03T16:41:59;100305.41;;;11.72;100.00
42859;BME280;28505;56.970;40.998;2023-05-03T16:47:23;100310.28;;;11.70;100.00
42859;BME280;28505;56.970;40.998;2023-05-03T16:52:46;100312.13;;;11.13;100.00
42859;BME280;28505;56.970;40.998;2023-05-03T16:58:08;100299.94;;;10.68;100.00
42859;BME280;28505;56.970;40.998;2023-05-03T17:03:30;100317.22;;;10.38;100.00
42859;BME280;28505;56.970;40.998;2023-05-03T17:08:54;100322.28;;;10.05;100.00
42859;BME280;28505;56.970;40.998;2023-05-03T17:14:16;100320.81;;;9.83;100.00
42859;BME280;28505;56.970;40.998;2023-05-03T17:19:38;100323.91;;;9.61;100.00
42859;BME280;28505;56.970;40.998;2023-05-03T17:25:04;100323.78;;;9.32;100.00
42859;BME280;28505;56.970;40.998;2023-05-03T17:30:27;100318.16;;;9.29;100.00
42859;BME280;28505;56.970;40.998;2023-05-03T17:35:50;100317.16;;;9.09;100.00
42859;BME280;28505;56.970;40.998;2023-05-03T17:41:11;100319.09;;;8.88;100.00
42859;BME280;28505;56.970;40.998;2023-05-03T17:46:34;100329.31;;;8.81;100.00
42859;BME280;28505;56.970;40.998;2023-05-03T17:51:56;100328.19;;;9.03;100.00
42859;BME280;28505;56.970;40.998;2023-05-03T17:57:19;100333.84;;;9.01;100.00
42859;BME280;28505;56.970;40.998;2023-05-03T18:02:42;100340.06;;;8.81;100.00
42859;BME280;28505;56.970;40.998;2023-05-03T18:08:05;100336.31;;;8.77;100.00
42859;BME280;28505;56.970;40.998;2023-05-03T18:13:28;100330.69;;;8.53;100.00
42859;BME280;28505;56.970;40.998;2023-05-03T18:18:50;100337.38;;;8.30;100.00
42859;BME280;28505;56.970;40.998;2023-05-03T18:24:14;100351.88;;;8.14;100.00
42859;BME280;28505;56.970;40.998;2023-05-03T18:29:38;100356.25;;;8.51;100.00
42859;BME280;28505;56.970;40.998;2023-05-03T18:35:01;100348.69;;;8.73;100.00
42859;BME280;28505;56.970;40.998;2023-05-03T18:40:23;100344.66;;;8.71;100.00
42859;BME280;28505;56.970;40.998;2023-05-03T18:45:46;100358.91;;;8.46;100.00
42859;BME280;28505;56.970;40.998;2023-05-03T18:51:08;100352.19;;;8.28;100.00
42859;BME280;28505;56.970;40.998;2023-05-03T18:56:30;100354.06;;;8.37;100.00
42859;BME280;28505;56.970;40.998;2023-05-03T19:01:54;100358.09;;;8.40;100.00
42859;BME280;28505;56.970;40.998;2023-05-03T19:07:17;100369.34;;;8.16;100.00
42859;BME280;28505;56.970;40.998;2023-05-03T19:12:39;100368.50;;;8.01;100.00
42859;BME280;28505;56.970;40.998;2023-05-03T19:18:02;100365.03;;;7.95;100.00
42859;BME280;28505;56.970;40.998;2023-05-03T19:23:25;100350.78;;;7.79;100.00
42859;BME280;28505;56.970;40.998;2023-05-03T19:28:48;100382.41;;;7.72;100.00
42859;BME280;28505;56.970;40.998;2023-05-03T19:34:12;100389.97;;;7.90;100.00
42859;BME280;28505;56.970;40.998;2023-05-03T19:39:35;100390.00;;;8.06;100.00
42859;BME280;28505;56.970;40.998;2023-05-03T19:44:58;100362.63;;;8.14;100.00
42859;BME280;28505;56.970;40.998;2023-05-03T19:50:24;100389.50;;;8.09;100.00
42859;BME280;28505;56.970;40.998;2023-05-03T19:55:56;100403.41;;;7.85;100.00
42859;BME280;28505;56.970;40.998;2023-05-03T20:01:20;100422.22;;;8.01;100.00
42859;BME280;28505;56.970;40.998;2023-05-03T20:06:42;100427.59;;;8.11;100.00
42859;BME280;28505;56.970;40.998;2023-05-03T20:12:04;100432.97;;;8.11;100.00
42859;BME280;28505;56.970;40.998;2023-05-03T20:17:26;100448.81;;;8.07;100.00
42859;BME280;28505;56.970;40.998;2023-05-03T20:22:49;100458.47;;;8.03;100.00
42859;BME280;28505;56.970;40.998;2023-05-03T20:28:12;100460.63;;;8.01;100.00
42859;BME280;28505;56.970;40.998;2023-05-03T20:33:34;100457.13;;;7.95;100.00
42859;BME280;28505;56.970;40.998;2023-05-03T20:38:57;100473.19;;;7.90;100.00
42859;BME280;28505;56.970;40.998;2023-05-03T20:44:19;100471.56;;;7.84;100.00
42859;BME280;28505;56.970;40.998;2023-05-03T20:49:42;100478.25;;;7.77;100.00
42859;BME280;28505;56.970;40.998;2023-05-03T20:55:04;100481.19;;;7.80;100.00
42859;BME280;28505;56.970;40.998;2023-05-03T21:00:25;100500.25;;;7.79;98.05
42859;BME280;28505;56.970;40.998;2023-05-03T21:05:48;100516.09;;;7.75;98.13
42859;BME280;28505;56.970;40.998;2023-05-03T21:11:11;100518.44;;;7.66;96.44
42859;BME280;28505;56.970;40.998;2023-05-03T21:16:33;100537.47;;;7.60;100.00
42859;BME280;28505;56.970;40.998;2023-05-03T21:21:55;100542.50;;;7.51;100.00
42859;BME280;28505;56.970;40.998;2023-05-03T21:27:17;100548.81;;;7.35;100.00
42859;BME280;28505;56.970;40.998;2023-05-03T21:32:41;100553.00;;;7.20;100.00
42859;BME280;28505;56.970;40.998;2023-05-03T21:38:04;100561.69;;;7.00;100.00
42859;BME280;28505;56.970;40.998;2023-05-03T21:43:27;100557.56;;;6.93;100.00
42859;BME280;28505;56.970;40.998;2023-05-03T21:48:49;100567.41;;;6.82;100.00
42859;BME280;28505;56.970;40.998;2023-05-03T21:54:11;100561.63;;;6.68;100.00
42859;BME280;28505;56.970;40.998;2023-05-03T21:59:33;100577.41;;;6.65;100.00
42859;BME280;28505;56.970;40.998;2023-05-03T22:04:56;100570.13;;;6.60;100.00
42859;BME280;28505;56.970;40.998;2023-05-03T22:10:19;100567.19;;;6.62;100.00
42859;BME280;28505;56.970;40.998;2023-05-03T22:15:41;100562.16;;;6.65;100.00
42859;BME280;28505;56.970;40.998;2023-05-03T22:21:03;100570.13;;;6.60;100.00
42859;BME280;28505;56.970;40.998;2023-05-03T22:32:15;100548.28;;;6.46;100.00
42859;BME280;28505;56.970;40.998;2023-05-03T22:37:38;100547.78;;;6.49;100.00
42859;BME280;28505;56.970;40.998;2023-05-03T22:42:59;100541.81;;;6.42;100.00
42859;BME280;28505;56.970;40.998;2023-05-03T22:48:22;100540.19;;;6.41;100.00
42859;BME280;28505;56.970;40.998;2023-05-03T22:53:50;100537.44;;;6.36;100.00
42859;BME280;28505;56.970;40.998;2023-05-03T22:59:11;100543.47;;;6.21;100.00
42859;BME280;28505;56.970;40.998;2023-05-03T23:04:34;100541.97;;;6.08;100.00
42859;BME280;28505;56.970;40.998;2023-05-03T23:10:00;100543.47;;;5.66;100.00
42859;BME280;28505;56.970;40.998;2023-05-03T23:15:24;100545.66;;;5.30;100.00
42859;BME280;28505;56.970;40.998;2023-05-03T23:20:49;100544.16;;;5.05;100.00
42859;BME280;28505;56.970;40.998;2023-05-03T23:26:11;100549.63;;;4.65;100.00
42859;BME280;28505;56.970;40.998;2023-05-03T23:31:33;100550.88;;;4.34;100.00
42859;BME280;28505;56.970;40.998;2023-05-03T23:36:57;100556.56;;;4.09;100.00
42859;BME280;28505;56.970;40.998;2023-05-03T23:42:19;100558.53;;;3.78;100.00
42859;BME280;28505;56.970;40.998;2023-05-03T23:47:41;100558.31;;;3.56;100.00
42859;BME280;28505;56.970;40.998;2023-05-03T23:53:04;100564.47;;;3.45;100.00
42859;BME280;28505;56.970;40.998;2023-05-03T23:58:26;100568.28;;;3.25;100.00
